Portada
METAR-TAF:

METAR-TAF

Aeropuertos :

Colmenar Viejo, España

latitud: 40-39N, longitud: 003-44W, altitud: -999 m

Observación

El informe se hizo hace 21 minutos, a las 11:00 UTC
Viento 1 kt con dirección variable
Temperatura 11°C
Humedad 47%
Presión 1020 hPa
Visibilidad 10 km o más
Escasas nubes a una altura de 6000 ft

METAR: LECV 231100Z VRB01KT 9999 FEW060 11/M00 Q1020

Hora: 12:21 (11:21 UTC)

Pronóstico

El informe se hizo hace 3 horas y 21 minutos, a las 08:00 UTC
Pronóstico válido del 23 a las 09 UTC al 23 a las 18 UTC
Viento 5 kt con dirección variable
Visibilidad 10 km o más
Escasas nubes a una altura de 6000 ft
Probabilidad 30% :
Temporalmente
del 23 a las 12 UTC al 23 a las 17 UTC
Viento 10 kt del suroeste

TAF: LECV 230800Z 2309/2318 VRB05KT 9999 FEW060 PROB30 TEMPO 2312/2317 23010KT

Observaciones y pronósticos meteorológicos de más de 4000 aeropuertos (mensajes METAR y TAF).

Los puntos amarillos y rojos representan las estaciones disponibles.

Ponga el ratón en el punto deseado para ver el nombre de la estación.

Haga clic para ver las observaciones y los pronósticos meteorológicos.

Para cambiar el mapa : haga clic en los botones verdes con una cruz de color negro para hacer un zoom, en el botón verde con un guión para alejar o en las flechas verdes para mapas adyacentes.


METAR-TAF: